Kingman, AZ (86401)

1:37 PM MST on August 30, 2015 (GMT -0700)
Southeast Kingman | | Change Station
CLOSE
Current Station
Personal Weather Station
Location: Kingman, AZ
Elevation: 3584 ft
Nearby Weather Stations

Elev 3584 ft 35.20 °N, 114.00 °W | Updated 2 minutes ago

Clear
Clear
93.6 °F
Feels Like 92 °F
N
12.0
Wind Variable Wind from SSE
Gusts 28.0 mph

Today
High -- | Low -- °F
--% Chance of Precip.
Yesterday
High -- | Low -- °F
Precip. -- in
6:07 AM 7:05 PM
Full, 98% visible
Pressure 29.74 in
Visibility 10.0 miles
Clouds Few 9000 ft
Heat Index 92 °F
Dew Point 56 °F
Humidity 28%
Rainfall 0.00 in
Snow Depth Not available.
UV 10 out of 12
Pollen 7.00 out of 12
Air Quality Not available.
Flu Activity Not available.
METAR KIGM 301951Z AUTO 18020G29KT 10SM FEW090 36/11 A2999 RMK AO2 PK WND 19033/1932 SLP070 T03560111
Pressure 29.74 in
Visibility 10.0 miles
Clouds Few 9000 ft
Heat Index 92 °F
Dew Point 56 °F
Humidity 28%
Rainfall 0.00 in
Snow Depth Not available.
UV 10 out of 12
Pollen 7.00 out of 12
Air Quality Not available.
Flu Activity Not available.
METAR KIGM 301951Z AUTO 18020G29KT 10SM FEW090 36/11 A2999 RMK AO2 PK WND 19033/1932 SLP070 T03560111

10-Day Weather Forecast

×

Almanac

Astronomy

Aug. 30, 2015 Rise Set
Actual Time
Civil Twilight
Nautical Twilight
Astronomical Twilight
Moon
Length of Visible Light
Length of Day
Tomorrow will be .
, % of the Moon is Illuminated

Today's Extremes

State Highs State Lows

Community

WunderPhotos

Upload Photos

1,851,056 photos uploaded!

WunderBlogs® & News

Nearby

Air Quality

  Air Quality AQ Index Pollutant
Not available.

Snow Depth

Station Depth Elevation

Earthquake Activity

City Distance Mag. Time & Date
Minimum magnitude displayed is 2.5.

Coastal Water Temperatures

Place Temperature

Stations

Nearby Weather Stations

Station Location Temp. Windchill Dew Point Humidity Wind Precip. Elev Updated Type